Time;durP1;ratioP1;P1;durP2;ratioP2;P2;SDS_P1;SDS_P2;PMS_P1;PMS_P2;Temp;Humidity;BMP_temperature;BMP_pressure;BME280_temperature;BME280_humidity;BME280_pressure;Samples;Min_cycle;Max_cycle;Signal;HPM_P1;HPM_P2
2022/08/16 00:02:00;;;;;;;16.15;14.55;;;;;;;;;;5046303;28;20044;-73
2022/08/16 00:04:26;;;;;;;16.58;14.98;;;;;;;;;;5063994;28;20656;-73
2022/08/16 00:06:52;;;;;;;16.38;14.90;;;;;;;;;;5062526;28;20095;-73
2022/08/16 00:09:19;;;;;;;16.30;14.90;;;;;;;;;;5057014;28;20095;-73
2022/08/16 00:11:45;;;;;;;16.58;14.90;;;;;;;;;;5050186;28;20097;-73
2022/08/16 00:14:13;;;;;;;15.88;14.45;;;;;;;;;;5043243;28;20050;-74
2022/08/16 00:16:42;;;;;;;15.88;14.23;;;;;;;;;;5046753;28;20051;-73
2022/08/16 00:19:08;;;;;;;15.80;14.43;;;;;;;;;;5044970;28;20047;-74
2022/08/16 00:21:34;;;;;;;15.65;14.00;;;;;;;;;;5056302;28;20060;-73
2022/08/16 00:24:00;;;;;;;15.57;14.27;;;;;;;;;;5037668;28;20049;-73
2022/08/16 00:26:26;;;;;;;16.60;14.93;;;;;;;;;;5048525;28;20503;-74
2022/08/16 00:28:52;;;;;;;16.50;15.10;;;;;;;;;;5048856;28;20041;-73
2022/08/16 00:31:18;;;;;;;16.67;15.18;;;;;;;;;;5057824;28;20079;-73
2022/08/16 00:33:44;;;;;;;17.10;15.38;;;;;;;;;;5058419;28;20044;-73
2022/08/16 00:36:10;;;;;;;16.38;14.82;;;;;;;;;;5057897;28;20037;-74
2022/08/16 00:38:36;;;;;;;17.55;15.95;;;;;;;;;;5050932;28;20060;-74
2022/08/16 00:41:06;;;;;;;17.08;15.57;;;;;;;;;;5053921;28;20075;-73
2022/08/16 00:43:34;;;;;;;14.95;13.73;;;;;;;;;;5041127;28;20069;-74
2022/08/16 00:46:00;;;;;;;18.65;16.73;;;;;;;;;;5051741;28;20044;-73
2022/08/16 00:48:26;;;;;;;16.73;15.13;;;;;;;;;;5057407;28;20040;-73
2022/08/16 00:50:52;;;;;;;16.38;14.95;;;;;;;;;;5049826;28;20040;-74
2022/08/16 00:53:18;;;;;;;15.43;14.18;;;;;;;;;;5048809;28;20106;-73
2022/08/16 00:55:48;;;;;;;16.80;15.23;;;;;;;;;;5057939;28;20381;-74
2022/08/16 00:58:15;;;;;;;16.63;14.95;;;;;;;;;;5047939;28;20041;-74
2022/08/16 01:00:41;;;;;;;16.92;15.32;;;;;;;;;;5052724;28;20041;-74
2022/08/16 01:03:09;;;;;;;16.63;15.20;;;;;;;;;;5049936;28;20496;-74
2022/08/16 01:05:36;;;;;;;17.50;15.90;;;;;;;;;;5043943;28;20051;-74
2022/08/16 01:08:03;;;;;;;16.90;15.32;;;;;;;;;;5048428;28;20136;-74
2022/08/16 01:10:31;;;;;;;16.83;15.27;;;;;;;;;;5083334;28;20111;-73
2022/08/16 01:12:58;;;;;;;16.17;14.85;;;;;;;;;;5049263;28;20048;-74
2022/08/16 01:15:24;;;;;;;16.70;15.30;;;;;;;;;;5046349;28;20382;-74
2022/08/16 01:17:50;;;;;;;17.58;15.77;;;;;;;;;;5064576;28;20045;-74
2022/08/16 01:20:18;;;;;;;17.98;16.25;;;;;;;;;;5045662;28;20130;-74
2022/08/16 01:22:51;;;;;;;17.48;16.08;;;;;;;;;;5049453;28;20063;-74
2022/08/16 01:25:22;;;;;;;17.88;16.27;;;;;;;;;;5047182;28;20083;-74
2022/08/16 01:27:50;;;;;;;17.35;15.75;;;;;;;;;;5079743;28;20052;-74
2022/08/16 01:30:23;;;;;;;17.17;15.48;;;;;;;;;;5040160;28;20044;-73
2022/08/16 01:32:50;;;;;;;18.25;16.45;;;;;;;;;;5049057;28;20052;-73
2022/08/16 01:35:34;;;;;;;17.77;16.27;;;;;;;;;;5062090;28;20109;-73
2022/08/16 01:38:14;;;;;;;17.17;15.65;;;;;;;;;;5061835;28;20037;-74
2022/08/16 01:40:40;;;;;;;18.17;16.38;;;;;;;;;;5045146;28;20097;-74
2022/08/16 01:43:07;;;;;;;17.85;16.10;;;;;;;;;;5047693;28;20470;-74
2022/08/16 01:45:33;;;;;;;18.20;16.60;;;;;;;;;;5057954;28;20095;-74
2022/08/16 01:47:59;;;;;;;18.95;17.08;;;;;;;;;;5054692;28;20040;-73
2022/08/16 01:50:25;;;;;;;19.88;17.90;;;;;;;;;;5056154;28;20064;-74
2022/08/16 01:52:51;;;;;;;20.02;18.27;;;;;;;;;;5035665;28;20516;-73
2022/08/16 01:55:18;;;;;;;19.75;17.95;;;;;;;;;;5050133;28;20504;-73
2022/08/16 01:57:44;;;;;;;18.63;17.05;;;;;;;;;;5052961;28;20037;-73
2022/08/16 02:00:10;;;;;;;17.85;16.35;;;;;;;;;;5045245;28;20045;-73
2022/08/16 02:02:36;;;;;;;13.07;11.88;;;;;;;;;;5080103;28;20369;-74
2022/08/16 02:05:03;;;;;;;9.00;8.10;;;;;;;;;;5048370;28;20045;-74
2022/08/16 02:07:29;;;;;;;9.10;8.20;;;;;;;;;;5048257;28;20049;-74
2022/08/16 02:09:55;;;;;;;9.75;8.80;;;;;;;;;;5050511;28;20037;-74
2022/08/16 02:12:21;;;;;;;9.52;8.57;;;;;;;;;;5052216;28;20056;-74
2022/08/16 02:14:47;;;;;;;9.68;8.77;;;;;;;;;;5043558;28;20049;-74
2022/08/16 02:17:13;;;;;;;10.35;9.35;;;;;;;;;;5049031;28;20447;-73
2022/08/16 02:19:41;;;;;;;11.02;9.82;;;;;;;;;;5058030;28;20040;-73
2022/08/16 02:22:12;;;;;;;11.02;9.90;;;;;;;;;;5048497;28;20399;-74
2022/08/16 02:24:38;;;;;;;10.57;9.57;;;;;;;;;;5049989;28;20404;-73
2022/08/16 02:27:05;;;;;;;10.05;9.05;;;;;;;;;;5057448;28;20479;-73
2022/08/16 02:29:31;;;;;;;10.32;8.70;;;;;;;;;;5054212;28;20045;-74
2022/08/16 02:31:58;;;;;;;10.43;9.52;;;;;;;;;;5051651;28;20097;-73
2022/08/16 02:34:24;;;;;;;10.15;9.25;;;;;;;;;;5050876;28;20059;-74
2022/08/16 02:36:50;;;;;;;12.40;9.85;;;;;;;;;;5047429;28;20041;-73
2022/08/16 02:39:18;;;;;;;10.60;9.60;;;;;;;;;;5056250;28;20041;-74
2022/08/16 02:41:45;;;;;;;10.52;9.45;;;;;;;;;;5053754;28;20116;-73
2022/08/16 02:44:11;;;;;;;10.77;9.68;;;;;;;;;;5046979;28;20076;-73
2022/08/16 02:46:37;;;;;;;10.13;9.13;;;;;;;;;;5052767;28;20467;-73
2022/08/16 02:49:05;;;;;;;9.73;8.80;;;;;;;;;;5043640;28;20049;-73
2022/08/16 02:51:31;;;;;;;10.55;9.55;;;;;;;;;;5045069;28;20060;-74
2022/08/16 02:53:57;;;;;;;11.07;9.98;;;;;;;;;;5046139;28;20707;-73
2022/08/16 02:56:23;;;;;;;10.95;9.93;;;;;;;;;;5067188;28;20513;-73
2022/08/16 02:58:50;;;;;;;12.07;10.88;;;;;;;;;;5045824;28;20033;-73
2022/08/16 03:01:22;;;;;;;12.25;11.05;;;;;;;;;;5063349;28;20045;-73
2022/08/16 03:03:48;;;;;;;13.77;10.90;;;;;;;;;;5051402;28;20041;-73
2022/08/16 03:06:18;;;;;;;12.70;11.50;;;;;;;;;;5049142;28;20087;-73
2022/08/16 03:08:44;;;;;;;11.93;10.82;;;;;;;;;;5065085;28;20100;-74
2022/08/16 03:11:11;;;;;;;12.48;11.18;;;;;;;;;;5050878;28;20048;-73
2022/08/16 03:13:38;;;;;;;13.10;11.90;;;;;;;;;;5060130;28;20049;-73
2022/08/16 03:16:04;;;;;;;12.98;11.88;;;;;;;;;;5038918;28;20097;-74
2022/08/16 03:18:30;;;;;;;15.15;13.85;;;;;;;;;;5051083;28;20083;-74
2022/08/16 03:20:58;;;;;;;14.13;12.85;;;;;;;;;;5048997;28;20523;-73
2022/08/16 03:23:24;;;;;;;15.60;14.20;;;;;;;;;;5040761;28;20068;-74
2022/08/16 03:25:50;;;;;;;16.25;14.65;;;;;;;;;;5040638;28;20060;-73
2022/08/16 03:28:17;;;;;;;17.08;15.27;;;;;;;;;;5047403;28;20144;-73
2022/08/16 03:30:43;;;;;;;16.30;14.90;;;;;;;;;;5059010;28;20488;-74
2022/08/16 03:33:09;;;;;;;16.63;15.13;;;;;;;;;;5060714;28;20095;-73
2022/08/16 03:35:36;;;;;;;17.35;15.55;;;;;;;;;;5038825;28;20132;-74
2022/08/16 03:38:03;;;;;;;17.08;15.38;;;;;;;;;;5052019;28;20060;-73
2022/08/16 03:40:30;;;;;;;17.05;15.45;;;;;;;;;;5052543;28;20127;-75
2022/08/16 03:42:56;;;;;;;15.68;13.50;;;;;;;;;;5053701;28;20084;-73
2022/08/16 03:45:24;;;;;;;15.35;13.85;;;;;;;;;;5052000;28;20052;-73
2022/08/16 03:47:50;;;;;;;14.90;13.48;;;;;;;;;;5083782;28;20061;-73
2022/08/16 03:50:16;;;;;;;14.63;13.30;;;;;;;;;;5051244;28;20229;-73
2022/08/16 03:52:42;;;;;;;14.70;13.25;;;;;;;;;;5054976;28;20037;-73
2022/08/16 03:55:09;;;;;;;15.98;13.68;;;;;;;;;;5040777;28;20036;-73
2022/08/16 03:57:35;;;;;;;14.45;13.05;;;;;;;;;;5043497;28;20584;-73
2022/08/16 04:00:13;;;;;;;14.70;13.18;;;;;;;;;;5049731;28;20036;-73
2022/08/16 04:02:41;;;;;;;14.77;13.35;;;;;;;;;;5036704;28;20077;-73
2022/08/16 04:05:07;;;;;;;14.70;13.30;;;;;;;;;;5055065;28;20057;-74
2022/08/16 04:07:33;;;;;;;14.82;13.40;;;;;;;;;;5051513;28;20056;-74
2022/08/16 04:09:59;;;;;;;14.45;12.95;;;;;;;;;;5051287;28;20051;-74
2022/08/16 04:12:25;;;;;;;16.50;14.63;;;;;;;;;;5054700;28;20049;-75
2022/08/16 04:14:51;;;;;;;15.00;13.52;;;;;;;;;;5060173;28;20045;-73
2022/08/16 04:17:17;;;;;;;14.55;13.15;;;;;;;;;;5044211;28;20045;-73
2022/08/16 04:19:44;;;;;;;15.90;14.48;;;;;;;;;;5045192;28;20041;-73
2022/08/16 04:22:12;;;;;;;18.40;16.70;;;;;;;;;;5050700;28;20107;-73
2022/08/16 04:24:38;;;;;;;18.60;16.90;;;;;;;;;;5047573;28;20507;-73
2022/08/16 04:27:05;;;;;;;17.23;15.73;;;;;;;;;;5045991;28;20128;-73
2022/08/16 04:29:31;;;;;;;17.83;16.08;;;;;;;;;;5062156;28;20045;-73
2022/08/16 04:31:57;;;;;;;18.17;16.27;;;;;;;;;;5048960;28;20057;-73
2022/08/16 04:34:23;;;;;;;17.92;16.13;;;;;;;;;;5033736;28;20060;-73
2022/08/16 04:36:49;;;;;;;18.08;16.38;;;;;;;;;;5044976;28;20045;-74
2022/08/16 04:39:16;;;;;;;20.52;16.80;;;;;;;;;;5054591;28;20051;-74
2022/08/16 04:41:42;;;;;;;19.65;17.75;;;;;;;;;;5054582;28;20052;-74
2022/08/16 04:44:08;;;;;;;19.27;17.48;;;;;;;;;;5049220;28;20045;-74
2022/08/16 04:46:34;;;;;;;20.02;18.30;;;;;;;;;;5047011;28;21008;-73
2022/08/16 04:49:00;;;;;;;18.00;16.30;;;;;;;;;;5055838;28;20048;-74
2022/08/16 04:51:26;;;;;;;19.55;17.65;;;;;;;;;;5058453;28;20052;-74
2022/08/16 04:53:52;;;;;;;19.20;17.40;;;;;;;;;;5053269;28;20040;-74
2022/08/16 04:56:19;;;;;;;19.05;17.20;;;;;;;;;;5057383;28;20041;-75
2022/08/16 04:58:45;;;;;;;18.52;16.55;;;;;;;;;;5053211;28;20484;-74
2022/08/16 05:01:11;;;;;;;19.92;17.25;;;;;;;;;;5052781;28;20120;-75
2022/08/16 05:03:37;;;;;;;18.77;17.02;;;;;;;;;;5050660;28;20049;-75
2022/08/16 05:06:03;;;;;;;19.50;17.83;;;;;;;;;;5060031;28;20056;-75
2022/08/16 05:08:29;;;;;;;19.95;18.08;;;;;;;;;;5049218;28;20064;-75
2022/08/16 05:10:56;;;;;;;19.05;17.25;;;;;;;;;;5058941;28;20053;-75
2022/08/16 05:13:22;;;;;;;19.02;17.23;;;;;;;;;;5036805;28;20046;-74
2022/08/16 05:15:48;;;;;;;18.48;16.77;;;;;;;;;;5051000;28;20044;-75
2022/08/16 05:18:14;;;;;;;18.55;16.73;;;;;;;;;;5049538;28;20415;-75
2022/08/16 05:20:40;;;;;;;19.05;17.25;;;;;;;;;;5046824;28;20076;-75
2022/08/16 05:23:06;;;;;;;21.40;17.52;;;;;;;;;;5044314;28;20041;-75
2022/08/16 05:25:32;;;;;;;21.70;18.65;;;;;;;;;;5051090;28;20067;-75
2022/08/16 05:27:59;;;;;;;19.65;17.75;;;;;;;;;;5048572;28;20049;-74
2022/08/16 05:30:25;;;;;;;18.67;16.75;;;;;;;;;;5049413;28;20063;-74
2022/08/16 05:32:51;;;;;;;19.15;17.38;;;;;;;;;;5037678;28;20081;-74
2022/08/16 05:35:17;;;;;;;18.52;16.58;;;;;;;;;;5046804;28;20056;-75
2022/08/16 05:37:43;;;;;;;18.95;17.00;;;;;;;;;;5050032;28;20048;-75
2022/08/16 05:40:10;;;;;;;20.08;17.05;;;;;;;;;;5082713;28;20123;-75
2022/08/16 05:42:36;;;;;;;21.42;19.33;;;;;;;;;;5057883;28;20048;-72
2022/08/16 05:45:05;;;;;;;20.02;18.05;;;;;;;;;;5055718;28;20056;-72
2022/08/16 05:47:31;;;;;;;22.23;19.10;;;;;;;;;;5051171;28;20044;-73
2022/08/16 05:49:57;;;;;;;21.13;19.05;;;;;;;;;;5064937;28;20602;-72
2022/08/16 05:52:24;;;;;;;21.17;18.90;;;;;;;;;;5053521;28;20588;-73
2022/08/16 05:54:49;;;;;;;21.08;18.63;;;;;;;;;;5049201;28;20114;-72
2022/08/16 05:57:17;;;;;;;23.98;20.20;;;;;;;;;;5046787;28;20497;-73
2022/08/16 05:59:44;;;;;;;21.25;19.08;;;;;;;;;;5032102;28;20042;-73
2022/08/16 06:02:10;;;;;;;22.15;19.75;;;;;;;;;;5063552;28;20041;-73
2022/08/16 06:04:36;;;;;;;20.98;18.85;;;;;;;;;;5043719;28;20098;-72
2022/08/16 06:07:04;;;;;;;21.80;19.67;;;;;;;;;;5062200;28;20036;-73
2022/08/16 06:09:30;;;;;;;22.52;20.17;;;;;;;;;;5047571;28;20045;-73
2022/08/16 06:11:56;;;;;;;21.80;19.67;;;;;;;;;;5050237;28;20405;-72
2022/08/16 06:14:22;;;;;;;23.63;20.10;;;;;;;;;;5052103;28;20045;-72
2022/08/16 06:16:48;;;;;;;21.90;19.80;;;;;;;;;;5060380;28;20043;-73
2022/08/16 06:19:14;;;;;;;22.58;19.95;;;;;;;;;;5066869;28;20563;-72
2022/08/16 06:21:40;;;;;;;22.63;20.38;;;;;;;;;;5040928;28;20511;-73
2022/08/16 06:24:06;;;;;;;22.02;19.83;;;;;;;;;;5052188;28;20087;-73
2022/08/16 06:26:33;;;;;;;23.70;21.35;;;;;;;;;;5044305;28;20114;-73
2022/08/16 06:28:58;;;;;;;21.73;19.60;;;;;;;;;;5047706;28;20156;-73
2022/08/16 06:31:25;;;;;;;22.92;20.73;;;;;;;;;;5038572;28;20132;-73
2022/08/16 06:33:51;;;;;;;23.27;20.40;;;;;;;;;;5049209;28;20076;-73
2022/08/16 06:36:17;;;;;;;21.98;19.65;;;;;;;;;;5049557;28;20136;-73
2022/08/16 06:38:43;;;;;;;21.92;19.65;;;;;;;;;;5042177;28;20061;-73
2022/08/16 06:41:10;;;;;;;22.52;20.15;;;;;;;;;;5041525;28;20045;-73
2022/08/16 06:43:36;;;;;;;20.85;18.95;;;;;;;;;;5048464;28;20493;-73
2022/08/16 06:46:04;;;;;;;22.92;19.92;;;;;;;;;;5044074;28;20041;-72
2022/08/16 06:48:31;;;;;;;23.27;20.92;;;;;;;;;;5050055;28;20049;-73
2022/08/16 06:50:57;;;;;;;23.92;20.15;;;;;;;;;;5031783;28;20050;-72
2022/08/16 06:53:23;;;;;;;21.20;19.20;;;;;;;;;;5065484;28;20050;-73
2022/08/16 06:55:49;;;;;;;21.88;19.58;;;;;;;;;;5046420;28;20056;-73
2022/08/16 06:58:15;;;;;;;20.52;18.58;;;;;;;;;;5054139;28;20396;-73
2022/08/16 07:00:41;;;;;;;21.98;19.73;;;;;;;;;;5053215;28;20380;-73
2022/08/16 07:03:07;;;;;;;23.00;20.52;;;;;;;;;;5061111;28;20515;-73
2022/08/16 07:05:34;;;;;;;21.98;19.67;;;;;;;;;;5051526;28;20053;-74
2022/08/16 07:08:03;;;;;;;23.95;21.65;;;;;;;;;;5080308;28;20053;-73
2022/08/16 07:10:29;;;;;;;23.88;21.55;;;;;;;;;;5057535;28;20109;-73
2022/08/16 07:12:55;;;;;;;23.75;21.35;;;;;;;;;;5052985;28;20049;-73
2022/08/16 07:15:21;;;;;;;21.67;19.67;;;;;;;;;;5081013;28;20032;-73
2022/08/16 07:17:48;;;;;;;23.13;20.98;;;;;;;;;;5044037;28;20053;-73
2022/08/16 07:20:14;;;;;;;23.33;20.98;;;;;;;;;;5058438;28;20037;-73
2022/08/16 07:22:41;;;;;;;21.33;19.38;;;;;;;;;;5051487;28;20055;-73
2022/08/16 07:25:09;;;;;;;23.20;20.92;;;;;;;;;;5086888;28;20144;-73
2022/08/16 07:27:35;;;;;;;22.88;19.25;;;;;;;;;;5058178;28;20094;-73
2022/08/16 07:30:01;;;;;;;23.65;21.27;;;;;;;;;;5097208;28;20036;-74
2022/08/16 07:32:30;;;;;;;22.45;19.90;;;;;;;;;;5094797;28;20049;-74
2022/08/16 07:34:56;;;;;;;23.50;20.95;;;;;;;;;;4983931;28;20137;-73
2022/08/16 07:37:22;;;;;;;21.30;19.27;;;;;;;;;;4992099;28;20134;-73
2022/08/16 07:39:48;;;;;;;23.50;21.40;;;;;;;;;;4993147;28;20157;-73
2022/08/16 07:42:14;;;;;;;22.60;20.13;;;;;;;;;;4990364;28;20490;-73
2022/08/16 07:44:40;;;;;;;22.00;19.90;;;;;;;;;;5020548;28;20046;-73
2022/08/16 07:47:06;;;;;;;22.73;20.55;;;;;;;;;;4993019;28;20054;-73
2022/08/16 07:49:32;;;;;;;22.55;20.10;;;;;;;;;;4994390;28;20050;-73
2022/08/16 07:51:58;;;;;;;21.80;19.58;;;;;;;;;;4991824;28;20173;-73
2022/08/16 07:54:25;;;;;;;21.55;19.35;;;;;;;;;;4986391;28;20534;-73
2022/08/16 07:56:51;;;;;;;21.10;18.63;;;;;;;;;;4992197;28;20088;-73
2022/08/16 07:59:17;;;;;;;22.73;20.20;;;;;;;;;;5011051;28;20057;-73
2022/08/16 08:01:43;;;;;;;22.95;20.48;;;;;;;;;;5006956;28;20049;-73
2022/08/16 08:04:11;;;;;;;22.00;19.65;;;;;;;;;;5008307;28;20124;-73
2022/08/16 08:06:37;;;;;;;23.63;21.13;;;;;;;;;;4996762;28;20050;-74
2022/08/16 08:09:04;;;;;;;23.77;21.42;;;;;;;;;;5001622;28;20478;-73
2022/08/16 08:11:30;;;;;;;24.25;19.42;;;;;;;;;;4998595;28;20050;-74
2022/08/16 08:13:58;;;;;;;21.58;19.27;;;;;;;;;;4978093;28;20046;-74
2022/08/16 08:16:25;;;;;;;18.88;16.88;;;;;;;;;;4976635;28;20062;-74
2022/08/16 08:18:53;;;;;;;16.52;13.93;;;;;;;;;;4972566;28;20522;-74
2022/08/16 08:21:20;;;;;;;16.13;13.40;;;;;;;;;;4993280;28;20038;-73
2022/08/16 08:23:47;;;;;;;15.63;13.30;;;;;;;;;;5009018;28;20112;-74
2022/08/16 08:26:16;;;;;;;14.95;13.27;;;;;;;;;;4998348;28;20062;-73
2022/08/16 08:28:42;;;;;;;15.55;12.90;;;;;;;;;;4991369;28;20065;-73
2022/08/16 08:31:08;;;;;;;14.25;12.27;;;;;;;;;;4986036;28;20050;-73
2022/08/16 08:33:35;;;;;;;14.13;12.38;;;;;;;;;;4995144;28;20046;-74
2022/08/16 08:36:03;;;;;;;15.52;12.93;;;;;;;;;;5002140;28;20042;-74
2022/08/16 08:38:30;;;;;;;14.88;12.55;;;;;;;;;;4993240;28;20125;-74
2022/08/16 08:40:56;;;;;;;15.30;13.07;;;;;;;;;;5003218;28;20042;-74
2022/08/16 08:43:22;;;;;;;16.13;14.40;;;;;;;;;;4989137;28;20151;-74
2022/08/16 08:45:48;;;;;;;15.68;12.55;;;;;;;;;;4988808;28;20060;-73
2022/08/16 08:48:14;;;;;;;15.30;13.70;;;;;;;;;;4984931;28;20046;-74
2022/08/16 08:50:41;;;;;;;16.00;14.15;;;;;;;;;;4987556;28;20394;-74
2022/08/16 08:53:07;;;;;;;18.27;13.40;;;;;;;;;;5005801;28;20061;-74
2022/08/16 08:55:34;;;;;;;17.48;14.68;;;;;;;;;;4984957;28;20057;-74
2022/08/16 08:58:00;;;;;;;14.48;13.00;;;;;;;;;;4983944;28;20065;-74
2022/08/16 09:00:27;;;;;;;15.57;12.63;;;;;;;;;;5001302;28;20141;-74
2022/08/16 09:02:53;;;;;;;14.82;13.27;;;;;;;;;;4990819;28;20046;-74
2022/08/16 09:05:20;;;;;;;16.52;14.82;;;;;;;;;;4995279;28;20069;-74
2022/08/16 09:07:46;;;;;;;18.55;16.20;;;;;;;;;;4988917;28;20465;-73
2022/08/16 09:10:13;;;;;;;16.67;14.15;;;;;;;;;;4999557;28;20045;-74
2022/08/16 09:12:39;;;;;;;15.45;13.43;;;;;;;;;;4997180;28;20096;-74
2022/08/16 09:15:07;;;;;;;17.02;14.40;;;;;;;;;;4985423;28;20113;-75
2022/08/16 09:17:33;;;;;;;15.93;13.57;;;;;;;;;;4997353;28;20398;-75
2022/08/16 09:19:59;;;;;;;13.43;12.18;;;;;;;;;;4987530;28;20050;-75
2022/08/16 09:22:26;;;;;;;17.63;13.77;;;;;;;;;;4980547;28;20055;-75
2022/08/16 09:24:52;;;;;;;14.30;12.90;;;;;;;;;;4995444;28;20050;-74
2022/08/16 09:27:19;;;;;;;15.07;13.57;;;;;;;;;;4988849;28;20050;-73
2022/08/16 09:29:45;;;;;;;16.88;13.25;;;;;;;;;;4994041;28;20041;-73
2022/08/16 09:32:11;;;;;;;14.52;12.40;;;;;;;;;;4997405;28;20049;-74
2022/08/16 09:34:37;;;;;;;15.35;13.77;;;;;;;;;;4996557;28;20046;-73
2022/08/16 09:37:03;;;;;;;14.13;12.60;;;;;;;;;;4999265;28;20374;-74
2022/08/16 09:39:29;;;;;;;13.18;11.75;;;;;;;;;;4981978;28;20119;-74
2022/08/16 09:41:58;;;;;;;16.85;12.40;;;;;;;;;;4985049;28;20077;-74
2022/08/16 09:44:25;;;;;;;13.18;11.80;;;;;;;;;;5012767;28;20058;-74
2022/08/16 09:46:52;;;;;;;14.85;13.30;;;;;;;;;;5008276;28;20046;-74
2022/08/16 09:49:19;;;;;;;14.88;13.38;;;;;;;;;;5004969;28;20038;-74
2022/08/16 09:51:53;;;;;;;12.95;11.43;;;;;;;;;;5001318;28;20078;-74
2022/08/16 09:54:20;;;;;;;15.55;12.45;;;;;;;;;;5004609;28;20064;-74
2022/08/16 09:56:46;;;;;;;14.15;12.02;;;;;;;;;;5002661;28;20050;-73
2022/08/16 09:59:14;;;;;;;15.90;12.30;;;;;;;;;;5012266;28;20050;-73
2022/08/16 10:01:41;;;;;;;12.60;11.15;;;;;;;;;;5007423;28;20045;-73
2022/08/16 10:04:07;;;;;;;12.07;10.70;;;;;;;;;;4983018;28;20050;-73
2022/08/16 10:06:33;;;;;;;12.65;10.90;;;;;;;;;;4991804;28;20406;-74
2022/08/16 10:09:00;;;;;;;12.18;10.80;;;;;;;;;;5002269;28;20475;-74
2022/08/16 10:14:10;;;;;;;14.82;13.10;;;;;;;;;;4983966;28;20474;-74
2022/08/16 10:16:36;;;;;;;16.08;12.25;;;;;;;;;;4988493;28;20077;-74
2022/08/16 10:19:03;;;;;;;17.10;12.25;;;;;;;;;;4989139;28;20431;-75
2022/08/16 10:21:30;;;;;;;13.95;12.20;;;;;;;;;;4992547;28;20128;-74
2022/08/16 10:23:56;;;;;;;14.73;13.23;;;;;;;;;;4994067;28;20465;-74
2022/08/16 10:26:23;;;;;;;13.82;11.95;;;;;;;;;;4986575;28;20062;-74
2022/08/16 10:28:50;;;;;;;14.35;11.80;;;;;;;;;;5017102;28;20542;-75
2022/08/16 10:31:17;;;;;;;15.00;11.80;;;;;;;;;;4986119;28;20620;-75
2022/08/16 10:33:43;;;;;;;12.98;11.27;;;;;;;;;;4975922;28;20043;-74
2022/08/16 10:36:11;;;;;;;13.20;11.80;;;;;;;;;;4993260;28;20206;-74
2022/08/16 10:38:38;;;;;;;13.60;12.13;;;;;;;;;;5016794;28;20495;-75
2022/08/16 10:41:05;;;;;;;13.73;11.25;;;;;;;;;;4993055;28;20573;-74
2022/08/16 10:43:31;;;;;;;13.63;10.30;;;;;;;;;;4992247;28;20084;-74
2022/08/16 10:45:58;;;;;;;12.63;10.57;;;;;;;;;;5011738;28;20078;-75
2022/08/16 10:48:23;;;;;;;12.73;11.10;;;;;;;;;;4980846;28;20092;-74
2022/08/16 10:50:50;;;;;;;11.40;10.30;;;;;;;;;;4993365;28;20077;-74
2022/08/16 10:53:16;;;;;;;12.15;10.32;;;;;;;;;;4989295;28;20387;-74
2022/08/16 10:55:42;;;;;;;11.45;10.25;;;;;;;;;;4994454;28;20105;-74
2022/08/16 10:58:10;;;;;;;12.40;9.32;;;;;;;;;;4980751;28;20498;-74
2022/08/16 11:00:39;;;;;;;12.05;10.95;;;;;;;;;;4989940;28;20117;-74
2022/08/16 11:03:06;;;;;;;11.63;10.52;;;;;;;;;;4993833;28;20053;-74
2022/08/16 11:05:33;;;;;;;12.07;10.60;;;;;;;;;;4997441;28;20042;-74
2022/08/16 11:07:59;;;;;;;11.77;9.90;;;;;;;;;;4984363;28;20050;-74
2022/08/16 11:10:36;;;;;;;11.20;10.00;;;;;;;;;;5015013;28;20233;-73
2022/08/16 11:13:02;;;;;;;12.32;10.57;;;;;;;;;;4986212;28;20042;-74
2022/08/16 11:15:29;;;;;;;11.88;10.60;;;;;;;;;;4977832;28;20455;-73
2022/08/16 11:17:55;;;;;;;13.70;12.48;;;;;;;;;;5022158;28;20090;-73
2022/08/16 11:20:22;;;;;;;11.95;10.60;;;;;;;;;;4992678;28;20100;-73
2022/08/16 11:22:48;;;;;;;11.35;10.27;;;;;;;;;;4991361;28;20046;-73
2022/08/16 11:25:16;;;;;;;11.68;10.68;;;;;;;;;;5013284;28;20053;-74
2022/08/16 11:27:42;;;;;;;11.30;10.32;;;;;;;;;;5000486;28;20394;-72
2022/08/16 11:30:09;;;;;;;11.18;9.57;;;;;;;;;;4981397;28;20066;-73
2022/08/16 11:32:36;;;;;;;11.95;10.85;;;;;;;;;;4990720;28;20042;-73
2022/08/16 11:35:07;;;;;;;11.65;9.73;;;;;;;;;;4997645;28;20068;-73
2022/08/16 11:37:33;;;;;;;10.65;9.48;;;;;;;;;;4991748;28;20047;-74
2022/08/16 11:40:00;;;;;;;10.65;9.55;;;;;;;;;;4981697;28;20058;-74
2022/08/16 11:42:26;;;;;;;12.95;9.73;;;;;;;;;;4976470;28;20051;-75
2022/08/16 11:44:52;;;;;;;10.82;9.82;;;;;;;;;;4991198;28;20050;-75
2022/08/16 11:47:18;;;;;;;10.40;9.38;;;;;;;;;;4985708;28;20047;-74
2022/08/16 11:49:44;;;;;;;10.70;9.70;;;;;;;;;;4976066;28;20043;-74
2022/08/16 11:52:10;;;;;;;9.88;8.88;;;;;;;;;;4991352;28;20070;-75
2022/08/16 11:54:36;;;;;;;10.13;9.32;;;;;;;;;;4988142;28;20047;-75
2022/08/16 11:57:02;;;;;;;9.38;8.48;;;;;;;;;;4983993;28;20387;-75
2022/08/16 11:59:28;;;;;;;9.98;8.25;;;;;;;;;;5002194;28;20045;-74
2022/08/16 12:01:55;;;;;;;9.35;7.88;;;;;;;;;;4979241;28;20066;-74
2022/08/16 12:04:21;;;;;;;9.30;8.40;;;;;;;;;;4998532;28;20124;-74
2022/08/16 12:06:48;;;;;;;10.73;9.20;;;;;;;;;;4985409;28;20058;-75
2022/08/16 12:09:14;;;;;;;10.50;8.70;;;;;;;;;;4973822;28;20045;-75
2022/08/16 12:11:40;;;;;;;8.80;8.00;;;;;;;;;;4974873;28;20410;-74
2022/08/16 12:14:06;;;;;;;10.82;7.80;;;;;;;;;;4991449;28;20062;-75
2022/08/16 12:16:35;;;;;;;14.40;10.05;;;;;;;;;;4985385;28;20043;-75
2022/08/16 12:19:07;;;;;;;14.60;10.20;;;;;;;;;;4987560;28;20038;-74
2022/08/16 12:21:33;;;;;;;11.82;10.68;;;;;;;;;;4979167;28;20051;-75
2022/08/16 12:23:59;;;;;;;12.98;11.85;;;;;;;;;;4972927;28;20043;-75
2022/08/16 12:26:26;;;;;;;12.43;11.40;;;;;;;;;;4996683;28;20100;-75
2022/08/16 12:28:52;;;;;;;11.05;10.05;;;;;;;;;;4984737;28;20081;-77
2022/08/16 12:31:19;;;;;;;10.55;9.55;;;;;;;;;;4987945;28;20053;-75
2022/08/16 12:33:45;;;;;;;11.30;9.60;;;;;;;;;;4993046;28;20372;-74
2022/08/16 12:36:12;;;;;;;9.40;8.60;;;;;;;;;;4986465;28;20124;-74
2022/08/16 12:38:39;;;;;;;8.77;7.97;;;;;;;;;;4990164;28;20082;-75
2022/08/16 12:41:08;;;;;;;10.90;9.77;;;;;;;;;;4986889;28;20046;-74
2022/08/16 12:43:35;;;;;;;11.38;10.40;;;;;;;;;;5005258;28;20490;-74
2022/08/16 12:46:01;;;;;;;11.45;9.75;;;;;;;;;;5000240;28;20213;-74
2022/08/16 12:51:15;;;;;;;9.38;8.45;;;;;;;;;;5008190;28;20541;-74
2022/08/16 12:53:42;;;;;;;9.68;8.77;;;;;;;;;;4974294;28;20479;-73
2022/08/16 12:56:10;;;;;;;10.38;7.63;;;;;;;;;;4973656;28;20047;-74
2022/08/16 12:58:37;;;;;;;9.75;8.90;;;;;;;;;;4985272;28;20383;-74
2022/08/16 13:01:04;;;;;;;9.45;8.35;;;;;;;;;;4974891;28;20074;-74
2022/08/16 13:03:30;;;;;;;9.07;8.27;;;;;;;;;;4980529;28;20142;-74
2022/08/16 13:05:57;;;;;;;9.52;8.50;;;;;;;;;;4974969;28;20249;-74
2022/08/16 13:08:24;;;;;;;9.55;8.63;;;;;;;;;;4981576;28;20054;-72
2022/08/16 13:10:52;;;;;;;10.27;9.27;;;;;;;;;;4981798;28;20054;-73
2022/08/16 13:13:23;;;;;;;9.35;8.45;;;;;;;;;;4976450;28;20047;-73
2022/08/16 13:15:56;;;;;;;9.18;8.38;;;;;;;;;;4977575;28;20501;-74
2022/08/16 13:18:23;;;;;;;10.15;9.18;;;;;;;;;;5012694;28;20438;-74
2022/08/16 13:20:50;;;;;;;9.48;8.45;;;;;;;;;;4980267;28;20510;-75
2022/08/16 13:23:16;;;;;;;9.82;8.95;;;;;;;;;;4972222;28;20074;-74
2022/08/16 13:25:43;;;;;;;9.48;8.68;;;;;;;;;;4980416;28;20070;-74
2022/08/16 13:28:10;;;;;;;9.60;8.70;;;;;;;;;;4988401;28;20049;-76
2022/08/16 13:30:39;;;;;;;8.63;7.93;;;;;;;;;;4991596;28;20499;-76
2022/08/16 13:33:05;;;;;;;10.75;9.07;;;;;;;;;;4984527;28;20046;-77
2022/08/16 13:35:33;;;;;;;10.05;8.98;;;;;;;;;;4980741;28;20049;-75
2022/08/16 13:37:59;;;;;;;12.35;9.32;;;;;;;;;;4988911;28;20354;-75
2022/08/16 13:40:25;;;;;;;9.15;8.40;;;;;;;;;;4978170;28;20058;-75
2022/08/16 13:42:54;;;;;;;10.05;9.15;;;;;;;;;;4988746;28;20513;-75
2022/08/16 13:45:20;;;;;;;9.23;8.35;;;;;;;;;;4988883;28;20078;-76
2022/08/16 13:47:47;;;;;;;9.48;8.52;;;;;;;;;;4994227;28;20053;-74
2022/08/16 13:50:14;;;;;;;9.50;8.65;;;;;;;;;;4991400;28;20047;-74
2022/08/16 13:52:41;;;;;;;10.27;9.32;;;;;;;;;;4985660;28;20109;-76
2022/08/16 13:55:08;;;;;;;12.27;10.40;;;;;;;;;;4983194;28;20049;-76
2022/08/16 13:57:34;;;;;;;9.98;9.07;;;;;;;;;;4987505;28;20051;-74
2022/08/16 14:00:00;;;;;;;10.43;9.32;;;;;;;;;;4989634;28;20034;-75
2022/08/16 14:02:26;;;;;;;11.15;10.05;;;;;;;;;;4982142;28;20490;-75
2022/08/16 14:04:52;;;;;;;14.10;9.40;;;;;;;;;;4979483;28;20046;-75
2022/08/16 14:07:18;;;;;;;11.45;10.35;;;;;;;;;;4984588;28;20050;-76
2022/08/16 14:09:44;;;;;;;12.25;11.10;;;;;;;;;;4994516;28;20128;-76
2022/08/16 14:12:30;;;;;;;11.55;10.38;;;;;;;;;;4990601;28;20138;-76
2022/08/16 14:14:56;;;;;;;11.90;10.73;;;;;;;;;;4986097;28;20073;-76
2022/08/16 14:17:23;;;;;;;12.68;11.38;;;;;;;;;;4976967;28;20125;-76
2022/08/16 14:19:49;;;;;;;12.27;11.13;;;;;;;;;;4990885;28;20046;-76
2022/08/16 14:22:21;;;;;;;12.77;11.50;;;;;;;;;;4985632;28;20122;-75
2022/08/16 14:24:49;;;;;;;12.40;11.30;;;;;;;;;;4990765;28;20105;-76